sensor_id;sensor_type;location;lat;lon;timestamp;pressure;altitude;pressure_sealevel;temperature;humidity
8890;BME280;4481;43.406;24.454;2023-03-16T00:01:16;76883.84;;;-144.09;95.77
8890;BME280;4481;43.406;24.454;2023-03-16T00:03:43;76869.19;;;-144.09;95.29
8890;BME280;4481;43.406;24.454;2023-03-16T00:06:09;76873.38;;;-144.09;94.79
8890;BME280;4481;43.406;24.454;2023-03-16T00:08:35;76879.66;;;-144.09;94.37
8890;BME280;4481;43.406;24.454;2023-03-16T00:11:02;76894.28;;;-144.09;94.47
8890;BME280;4481;43.406;24.454;2023-03-16T00:13:29;76906.81;;;-144.09;93.89
8890;BME280;4481;43.406;24.454;2023-03-16T00:15:56;76925.63;;;-144.09;94.01
8890;BME280;4481;43.406;24.454;2023-03-16T00:18:25;76948.63;;;-144.09;94.66
8890;BME280;4481;43.406;24.454;2023-03-16T00:20:53;76948.63;;;-144.09;94.69
8890;BME280;4481;43.406;24.454;2023-03-16T00:23:21;76952.78;;;-144.09;94.81
8890;BME280;4481;43.406;24.454;2023-03-16T00:25:52;76944.44;;;-144.09;94.27
8890;BME280;4481;43.406;24.454;2023-03-16T00:28:18;76956.97;;;-144.09;94.71
8890;BME280;4481;43.406;24.454;2023-03-16T00:30:44;76954.88;;;-144.09;94.53
8890;BME280;4481;43.406;24.454;2023-03-16T00:33:11;76948.63;;;-144.09;94.26
8890;BME280;4481;43.406;24.454;2023-03-16T00:35:38;76936.06;;;-144.09;93.57
8890;BME280;4481;43.406;24.454;2023-03-16T00:38:04;76929.81;;;-144.09;93.99
8890;BME280;4481;43.406;24.454;2023-03-16T00:40:30;76944.44;;;-144.09;94.02
8890;BME280;4481;43.406;24.454;2023-03-16T00:42:58;76942.34;;;-144.09;93.84
8890;BME280;4481;43.406;24.454;2023-03-16T00:45:24;76944.44;;;-144.09;93.83
8890;BME280;4481;43.406;24.454;2023-03-16T00:47:50;76965.34;;;-144.09;93.99
8890;BME280;4481;43.406;24.454;2023-03-16T00:50:18;76973.69;;;-144.09;93.96
8890;BME280;4481;43.406;24.454;2023-03-16T00:52:47;76994.59;;;-144.09;94.29
8890;BME280;4481;43.406;24.454;2023-03-16T00:55:13;77002.94;;;-144.09;94.00
8890;BME280;4481;43.406;24.454;2023-03-16T00:57:39;77005.03;;;-144.09;94.06
8890;BME280;4481;43.406;24.454;2023-03-16T01:00:07;77000.88;;;-144.09;93.67
8890;BME280;4481;43.406;24.454;2023-03-16T01:02:37;77009.22;;;-144.09;93.24
8890;BME280;4481;43.406;24.454;2023-03-16T01:05:04;77013.41;;;-144.09;92.95
8890;BME280;4481;43.406;24.454;2023-03-16T01:07:30;77028.03;;;-144.09;92.81
8890;BME280;4481;43.406;24.454;2023-03-16T01:09:57;77025.94;;;-144.09;92.70
8890;BME280;4481;43.406;24.454;2023-03-16T01:12:23;77038.47;;;-144.09;92.93
8890;BME280;4481;43.406;24.454;2023-03-16T01:14:49;77040.56;;;-144.09;92.87
8890;BME280;4481;43.406;24.454;2023-03-16T01:17:16;77042.66;;;-144.09;92.47
8890;BME280;4481;43.406;24.454;2023-03-16T01:19:43;77034.28;;;-144.09;92.50
8890;BME280;4481;43.406;24.454;2023-03-16T01:22:10;77055.19;;;-144.09;93.14
8890;BME280;4481;43.406;24.454;2023-03-16T01:24:37;77065.66;;;-144.09;92.97
8890;BME280;4481;43.406;24.454;2023-03-16T01:27:04;77067.75;;;-144.09;93.10
8890;BME280;4481;43.406;24.454;2023-03-16T01:29:31;77067.75;;;-144.09;93.11
8890;BME280;4481;43.406;24.454;2023-03-16T01:31:58;77076.09;;;-144.09;93.13
8890;BME280;4481;43.406;24.454;2023-03-16T01:34:24;77080.28;;;-144.09;92.80
8890;BME280;4481;43.406;24.454;2023-03-16T01:36:50;77092.81;;;-144.09;92.97
8890;BME280;4481;43.406;24.454;2023-03-16T01:39:17;77094.91;;;-144.09;92.89
8890;BME280;4481;43.406;24.454;2023-03-16T01:41:44;77094.91;;;-144.09;92.73
8890;BME280;4481;43.406;24.454;2023-03-16T01:44:12;77111.63;;;-144.09;93.38
8890;BME280;4481;43.406;24.454;2023-03-16T01:46:39;77122.06;;;-144.09;93.51
8890;BME280;4481;43.406;24.454;2023-03-16T01:49:10;77130.44;;;-144.09;94.34
8890;BME280;4481;43.406;24.454;2023-03-16T01:51:40;77122.06;;;-144.09;93.70
8890;BME280;4481;43.406;24.454;2023-03-16T01:54:19;77122.06;;;-144.09;93.32
8890;BME280;4481;43.406;24.454;2023-03-16T01:56:51;77119.97;;;-144.09;93.02
8890;BME280;4481;43.406;24.454;2023-03-16T01:59:23;77128.34;;;-144.09;93.12
8890;BME280;4481;43.406;24.454;2023-03-16T02:01:51;77128.34;;;-144.09;93.22
8890;BME280;4481;43.406;24.454;2023-03-16T02:04:25;77147.16;;;-144.09;92.98
8890;BME280;4481;43.406;24.454;2023-03-16T02:06:55;77165.97;;;-144.09;93.46
8890;BME280;4481;43.406;24.454;2023-03-16T02:09:23;77168.06;;;-144.09;93.28
8890;BME280;4481;43.406;24.454;2023-03-16T02:11:50;77180.59;;;-144.09;93.65
8890;BME280;4481;43.406;24.454;2023-03-16T02:14:18;77191.03;;;-144.09;93.81
8890;BME280;4481;43.406;24.454;2023-03-16T02:16:45;77199.41;;;-144.09;94.09
8890;BME280;4481;43.406;24.454;2023-03-16T02:19:17;77195.22;;;-144.09;94.29
8890;BME280;4481;43.406;24.454;2023-03-16T02:21:54;77195.22;;;-144.09;93.69
8890;BME280;4481;43.406;24.454;2023-03-16T02:24:24;77207.75;;;-144.09;93.81
8890;BME280;4481;43.406;24.454;2023-03-16T02:26:54;77211.94;;;-144.09;93.83
8890;BME280;4481;43.406;24.454;2023-03-16T02:29:44;77218.22;;;-144.09;94.36
8890;BME280;4481;43.406;24.454;2023-03-16T02:32:13;77209.84;;;-144.09;93.75
8890;BME280;4481;43.406;24.454;2023-03-16T02:34:40;77228.66;;;-144.09;94.42
8890;BME280;4481;43.406;24.454;2023-03-16T02:37:08;77232.84;;;-144.09;94.33
8890;BME280;4481;43.406;24.454;2023-03-16T02:39:34;77232.84;;;-144.09;94.42
8890;BME280;4481;43.406;24.454;2023-03-16T02:42:01;77230.75;;;-144.09;94.88
8890;BME280;4481;43.406;24.454;2023-03-16T02:44:30;77228.66;;;-144.09;94.62
8890;BME280;4481;43.406;24.454;2023-03-16T02:47:01;77237.03;;;-144.09;95.06
8890;BME280;4481;43.406;24.454;2023-03-16T02:49:32;77234.94;;;-144.09;94.17
8890;BME280;4481;43.406;24.454;2023-03-16T02:51:59;77253.75;;;-144.09;94.83
8890;BME280;4481;43.406;24.454;2023-03-16T02:54:25;77249.56;;;-144.09;94.61
8890;BME280;4481;43.406;24.454;2023-03-16T02:56:51;77260.00;;;-144.09;94.94
8890;BME280;4481;43.406;24.454;2023-03-16T02:59:18;77274.63;;;-144.09;95.33
8890;BME280;4481;43.406;24.454;2023-03-16T03:01:44;77285.09;;;-144.09;95.46
8890;BME280;4481;43.406;24.454;2023-03-16T03:04:11;77291.34;;;-144.09;95.71
8890;BME280;4481;43.406;24.454;2023-03-16T03:06:37;77299.72;;;-144.09;96.00
8890;BME280;4481;43.406;24.454;2023-03-16T03:09:04;77295.53;;;-144.09;95.86
8890;BME280;4481;43.406;24.454;2023-03-16T03:11:30;77303.91;;;-144.09;95.68
8890;BME280;4481;43.406;24.454;2023-03-16T03:13:57;77293.44;;;-144.09;95.24
8890;BME280;4481;43.406;24.454;2023-03-16T03:16:23;77295.53;;;-144.09;95.61
8890;BME280;4481;43.406;24.454;2023-03-16T03:18:49;77306.00;;;-144.09;95.97
8890;BME280;4481;43.406;24.454;2023-03-16T03:21:18;77326.88;;;-144.09;96.24
8890;BME280;4481;43.406;24.454;2023-03-16T03:23:44;77331.06;;;-144.09;96.37
8890;BME280;4481;43.406;24.454;2023-03-16T03:26:11;77331.06;;;-144.09;96.15
8890;BME280;4481;43.406;24.454;2023-03-16T03:28:39;77335.25;;;-144.09;95.94
8890;BME280;4481;43.406;24.454;2023-03-16T03:31:05;77339.44;;;-144.09;96.15
8890;BME280;4481;43.406;24.454;2023-03-16T03:33:31;77339.44;;;-144.09;96.05
8890;BME280;4481;43.406;24.454;2023-03-16T03:35:58;77345.69;;;-144.09;95.96
8890;BME280;4481;43.406;24.454;2023-03-16T03:38:27;77362.41;;;-144.09;96.43
8890;BME280;4481;43.406;24.454;2023-03-16T03:40:53;77366.59;;;-144.09;96.15
8890;BME280;4481;43.406;24.454;2023-03-16T03:43:23;77370.78;;;-144.09;96.25
8890;BME280;4481;43.406;24.454;2023-03-16T03:45:54;77364.50;;;-144.09;95.76
8890;BME280;4481;43.406;24.454;2023-03-16T03:48:20;77372.88;;;-144.09;96.09
8890;BME280;4481;43.406;24.454;2023-03-16T03:50:46;77385.41;;;-144.09;96.17
8890;BME280;4481;43.406;24.454;2023-03-16T03:53:13;77389.59;;;-144.09;96.12
8890;BME280;4481;43.406;24.454;2023-03-16T03:55:40;77387.50;;;-144.09;95.76
8890;BME280;4481;43.406;24.454;2023-03-16T03:58:06;77408.41;;;-144.09;96.33
8890;BME280;4481;43.406;24.454;2023-03-16T04:00:32;77410.50;;;-144.09;96.03
8890;BME280;4481;43.406;24.454;2023-03-16T04:02:58;77391.69;;;-144.09;95.94
8890;BME280;4481;43.406;24.454;2023-03-16T04:05:25;77391.69;;;-144.09;95.39
8890;BME280;4481;43.406;24.454;2023-03-16T04:07:52;77402.13;;;-144.09;95.40
8890;BME280;4481;43.406;24.454;2023-03-16T04:10:22;77395.88;;;-144.09;95.46
8890;BME280;4481;43.406;24.454;2023-03-16T04:12:49;77418.84;;;-144.09;95.73
8890;BME280;4481;43.406;24.454;2023-03-16T04:15:15;77429.31;;;-144.09;96.15
8890;BME280;4481;43.406;24.454;2023-03-16T04:17:41;77437.66;;;-144.09;96.40
8890;BME280;4481;43.406;24.454;2023-03-16T04:20:09;77429.31;;;-144.09;95.95
8890;BME280;4481;43.406;24.454;2023-03-16T04:22:39;77437.66;;;-144.09;95.75
8890;BME280;4481;43.406;24.454;2023-03-16T04:25:07;77446.03;;;-144.09;96.75
8890;BME280;4481;43.406;24.454;2023-03-16T04:27:33;77446.03;;;-144.09;96.40
8890;BME280;4481;43.406;24.454;2023-03-16T04:30:01;77452.28;;;-144.09;96.62
8890;BME280;4481;43.406;24.454;2023-03-16T04:32:27;77443.94;;;-144.09;96.64
8890;BME280;4481;43.406;24.454;2023-03-16T04:34:53;77458.56;;;-144.09;96.64
8890;BME280;4481;43.406;24.454;2023-03-16T04:37:20;77460.66;;;-144.09;96.82
8890;BME280;4481;43.406;24.454;2023-03-16T04:39:47;77458.56;;;-144.09;97.34
8890;BME280;4481;43.406;24.454;2023-03-16T04:42:13;77473.19;;;-144.09;97.79
8890;BME280;4481;43.406;24.454;2023-03-16T04:44:39;77477.38;;;-144.09;98.91
8890;BME280;4481;43.406;24.454;2023-03-16T04:47:09;77483.66;;;-144.09;99.13
8890;BME280;4481;43.406;24.454;2023-03-16T04:49:35;77494.09;;;-144.09;100.00
8890;BME280;4481;43.406;24.454;2023-03-16T04:52:02;77500.38;;;-144.09;100.00
8890;BME280;4481;43.406;24.454;2023-03-16T04:54:29;77519.19;;;-144.09;100.00
8890;BME280;4481;43.406;24.454;2023-03-16T04:56:55;77515.00;;;-144.09;100.00
8890;BME280;4481;43.406;24.454;2023-03-16T04:59:21;77517.09;;;-144.09;100.00
8890;BME280;4481;43.406;24.454;2023-03-16T05:01:48;77515.00;;;-144.09;100.00
8890;BME280;4481;43.406;24.454;2023-03-16T05:04:15;77519.19;;;-144.09;100.00
8890;BME280;4481;43.406;24.454;2023-03-16T05:06:41;77521.28;;;-144.09;100.00
8890;BME280;4481;43.406;24.454;2023-03-16T05:09:07;77544.25;;;-144.09;100.00
8890;BME280;4481;43.406;24.454;2023-03-16T05:11:34;77558.88;;;-144.09;100.00
8890;BME280;4481;43.406;24.454;2023-03-16T05:14:00;77556.81;;;-144.09;100.00
8890;BME280;4481;43.406;24.454;2023-03-16T05:16:28;77560.97;;;-144.09;100.00
8890;BME280;4481;43.406;24.454;2023-03-16T05:18:56;77546.34;;;-144.09;100.00
8890;BME280;4481;43.406;24.454;2023-03-16T05:21:24;77556.81;;;-144.09;100.00
8890;BME280;4481;43.406;24.454;2023-03-16T05:23:50;77552.63;;;-144.09;100.00
8890;BME280;4481;43.406;24.454;2023-03-16T05:26:16;77558.88;;;-144.09;100.00
8890;BME280;4481;43.406;24.454;2023-03-16T05:28:43;77567.25;;;-144.09;100.00
8890;BME280;4481;43.406;24.454;2023-03-16T05:31:09;77560.97;;;-144.09;100.00
8890;BME280;4481;43.406;24.454;2023-03-16T05:33:36;77560.97;;;-144.09;100.00
8890;BME280;4481;43.406;24.454;2023-03-16T05:36:02;77560.97;;;-144.09;100.00
8890;BME280;4481;43.406;24.454;2023-03-16T05:38:29;77571.44;;;-144.09;100.00
8890;BME280;4481;43.406;24.454;2023-03-16T05:40:56;77583.97;;;-144.09;100.00
8890;BME280;4481;43.406;24.454;2023-03-16T05:43:25;77596.50;;;-144.09;100.00
8890;BME280;4481;43.406;24.454;2023-03-16T05:45:53;77586.06;;;-144.09;100.00
8890;BME280;4481;43.406;24.454;2023-03-16T05:48:19;77577.69;;;-144.09;100.00
8890;BME280;4481;43.406;24.454;2023-03-16T05:50:46;77579.78;;;-144.09;100.00
8890;BME280;4481;43.406;24.454;2023-03-16T05:53:13;77583.97;;;-144.09;100.00
8890;BME280;4481;43.406;24.454;2023-03-16T05:55:41;77606.97;;;-144.09;100.00
8890;BME280;4481;43.406;24.454;2023-03-16T05:58:08;77609.06;;;-144.09;100.00
8890;BME280;4481;43.406;24.454;2023-03-16T06:00:34;77600.69;;;-144.09;100.00
8890;BME280;4481;43.406;24.454;2023-03-16T06:03:04;77623.69;;;-144.09;100.00
8890;BME280;4481;43.406;24.454;2023-03-16T06:05:30;77613.25;;;-144.09;100.00
8890;BME280;4481;43.406;24.454;2023-03-16T06:07:56;77621.59;;;-144.09;100.00
8890;BME280;4481;43.406;24.454;2023-03-16T06:10:23;77606.97;;;-144.09;100.00
8890;BME280;4481;43.406;24.454;2023-03-16T06:12:51;77623.69;;;-144.09;100.00
8890;BME280;4481;43.406;24.454;2023-03-16T06:15:17;77619.50;;;-144.09;100.00
8890;BME280;4481;43.406;24.454;2023-03-16T06:17:43;77609.06;;;-144.09;100.00
8890;BME280;4481;43.406;24.454;2023-03-16T06:20:12;77615.31;;;-144.09;100.00
8890;BME280;4481;43.406;24.454;2023-03-16T06:22:38;77625.78;;;-144.09;100.00
8890;BME280;4481;43.406;24.454;2023-03-16T06:25:07;77652.94;;;-144.09;100.00
8890;BME280;4481;43.406;24.454;2023-03-16T06:27:34;77655.03;;;-144.09;100.00
8890;BME280;4481;43.406;24.454;2023-03-16T06:30:01;77652.94;;;-144.09;100.00
8890;BME280;4481;43.406;24.454;2023-03-16T06:32:28;77657.13;;;-144.09;100.00
8890;BME280;4481;43.406;24.454;2023-03-16T06:34:54;77661.31;;;-144.09;100.00
8890;BME280;4481;43.406;24.454;2023-03-16T06:37:20;77678.03;;;-144.09;100.00
8890;BME280;4481;43.406;24.454;2023-03-16T06:39:47;77678.03;;;-144.09;100.00
8890;BME280;4481;43.406;24.454;2023-03-16T06:42:13;77682.22;;;-144.09;100.00
8890;BME280;4481;43.406;24.454;2023-03-16T06:44:39;77678.03;;;-144.09;100.00
8890;BME280;4481;43.406;24.454;2023-03-16T06:47:06;77703.13;;;-144.09;100.00
8890;BME280;4481;43.406;24.454;2023-03-16T06:49:33;77705.22;;;-144.09;100.00
8890;BME280;4481;43.406;24.454;2023-03-16T06:51:59;77694.75;;;-144.09;100.00
8890;BME280;4481;43.406;24.454;2023-03-16T06:54:26;77696.84;;;-144.09;100.00
8890;BME280;4481;43.406;24.454;2023-03-16T06:56:52;77696.84;;;-144.09;100.00
8890;BME280;4481;43.406;24.454;2023-03-16T06:59:19;77713.56;;;-144.09;100.00
8890;BME280;4481;43.406;24.454;2023-03-16T07:01:45;77713.56;;;-144.09;100.00
8890;BME280;4481;43.406;24.454;2023-03-16T07:04:12;77709.38;;;-144.09;100.00
8890;BME280;4481;43.406;24.454;2023-03-16T07:06:38;77715.66;;;-144.09;100.00
8890;BME280;4481;43.406;24.454;2023-03-16T07:09:05;77717.75;;;-144.09;100.00
8890;BME280;4481;43.406;24.454;2023-03-16T07:11:32;77707.28;;;-144.09;100.00
8890;BME280;4481;43.406;24.454;2023-03-16T07:13:58;77730.28;;;-144.09;100.00
8890;BME280;4481;43.406;24.454;2023-03-16T07:16:24;77730.28;;;-144.09;100.00
8890;BME280;4481;43.406;24.454;2023-03-16T07:18:50;77736.56;;;-144.09;100.00
8890;BME280;4481;43.406;24.454;2023-03-16T07:21:17;77755.38;;;-144.09;100.00
8890;BME280;4481;43.406;24.454;2023-03-16T07:23:44;77747.00;;;-144.09;100.00
8890;BME280;4481;43.406;24.454;2023-03-16T07:26:10;77747.00;;;-144.09;100.00
8890;BME280;4481;43.406;24.454;2023-03-16T07:28:37;77755.38;;;-144.09;100.00
8890;BME280;4481;43.406;24.454;2023-03-16T07:31:04;77751.19;;;-144.09;100.00
8890;BME280;4481;43.406;24.454;2023-03-16T07:33:32;77753.28;;;-144.09;100.00
8890;BME280;4481;43.406;24.454;2023-03-16T07:35:59;77757.47;;;-144.09;100.00
8890;BME280;4481;43.406;24.454;2023-03-16T07:38:29;77761.66;;;-144.09;100.00
8890;BME280;4481;43.406;24.454;2023-03-16T07:40:58;77770.00;;;-144.09;100.00
8890;BME280;4481;43.406;24.454;2023-03-16T07:43:24;77790.91;;;-144.09;100.00
8890;BME280;4481;43.406;24.454;2023-03-16T07:45:51;77801.34;;;-144.09;100.00
8890;BME280;4481;43.406;24.454;2023-03-16T07:48:18;77782.53;;;-144.09;100.00
8890;BME280;4481;43.406;24.454;2023-03-16T07:50:46;77780.47;;;-144.09;100.00
8890;BME280;4481;43.406;24.454;2023-03-16T07:53:13;77772.09;;;-144.09;100.00
8890;BME280;4481;43.406;24.454;2023-03-16T07:55:40;77770.00;;;-144.09;100.00
8890;BME280;4481;43.406;24.454;2023-03-16T07:58:07;77761.66;;;-144.09;100.00
8890;BME280;4481;43.406;24.454;2023-03-16T08:00:35;77772.09;;;-144.09;100.00
8890;BME280;4481;43.406;24.454;2023-03-16T08:03:01;77767.91;;;-144.09;100.00
8890;BME280;4481;43.406;24.454;2023-03-16T08:05:28;77761.66;;;-144.09;100.00
8890;BME280;4481;43.406;24.454;2023-03-16T08:07:54;77753.28;;;-144.09;100.00
8890;BME280;4481;43.406;24.454;2023-03-16T08:10:21;77776.28;;;-144.09;100.00
8890;BME280;4481;43.406;24.454;2023-03-16T08:12:48;77757.47;;;-144.09;100.00
8890;BME280;4481;43.406;24.454;2023-03-16T08:15:16;77742.84;;;-144.09;100.00
8890;BME280;4481;43.406;24.454;2023-03-16T08:17:42;77759.56;;;-144.09;100.00
8890;BME280;4481;43.406;24.454;2023-03-16T08:20:10;77753.28;;;-144.09;100.00
8890;BME280;4481;43.406;24.454;2023-03-16T08:22:39;77738.66;;;-144.09;100.00
8890;BME280;4481;43.406;24.454;2023-03-16T08:25:06;77740.75;;;-144.09;100.00
8890;BME280;4481;43.406;24.454;2023-03-16T08:27:35;77755.38;;;-144.09;100.00
8890;BME280;4481;43.406;24.454;2023-03-16T08:30:03;77740.75;;;-144.09;100.00
8890;BME280;4481;43.406;24.454;2023-03-16T08:32:30;77751.19;;;-144.09;100.00
8890;BME280;4481;43.406;24.454;2023-03-16T08:34:57;77767.91;;;-144.09;100.00
8890;BME280;4481;43.406;24.454;2023-03-16T08:37:24;77772.09;;;-144.09;100.00
8890;BME280;4481;43.406;24.454;2023-03-16T08:39:51;77767.91;;;-144.09;100.00
8890;BME280;4481;43.406;24.454;2023-03-16T08:42:18;77776.28;;;-144.09;100.00
8890;BME280;4481;43.406;24.454;2023-03-16T08:44:45;77776.28;;;-144.09;100.00
8890;BME280;4481;43.406;24.454;2023-03-16T08:47:13;77778.38;;;-144.09;100.00
8890;BME280;4481;43.406;24.454;2023-03-16T08:49:40;77788.81;;;-144.09;100.00
8890;BME280;4481;43.406;24.454;2023-03-16T08:52:07;77778.38;;;-144.09;100.00
8890;BME280;4481;43.406;24.454;2023-03-16T08:54:35;77765.81;;;-144.09;100.00
8890;BME280;4481;43.406;24.454;2023-03-16T08:57:01;77782.53;;;-144.09;100.00
8890;BME280;4481;43.406;24.454;2023-03-16T08:59:28;77774.19;;;-144.09;100.00
8890;BME280;4481;43.406;24.454;2023-03-16T09:01:54;77776.28;;;-144.09;100.00
8890;BME280;4481;43.406;24.454;2023-03-16T09:04:21;77767.91;;;-144.09;100.00
8890;BME280;4481;43.406;24.454;2023-03-16T09:06:48;77767.91;;;-144.09;100.00
8890;BME280;4481;43.406;24.454;2023-03-16T09:09:16;77757.47;;;-144.09;100.00
8890;BME280;4481;43.406;24.454;2023-03-16T09:11:42;77765.81;;;-144.09;100.00
8890;BME280;4481;43.406;24.454;2023-03-16T09:14:08;77751.19;;;-144.09;100.00
8890;BME280;4481;43.406;24.454;2023-03-16T09:16:36;77767.91;;;-144.09;100.00
8890;BME280;4481;43.406;24.454;2023-03-16T09:19:02;77755.38;;;-144.09;100.00
8890;BME280;4481;43.406;24.454;2023-03-16T09:21:30;77751.19;;;-144.09;100.00
8890;BME280;4481;43.406;24.454;2023-03-16T09:23:57;77778.38;;;-144.09;100.00
8890;BME280;4481;43.406;24.454;2023-03-16T09:26:23;77747.00;;;-144.09;100.00
8890;BME280;4481;43.406;24.454;2023-03-16T09:28:49;77755.38;;;-144.09;100.00
8890;BME280;4481;43.406;24.454;2023-03-16T09:31:17;77738.66;;;-144.09;100.00
8890;BME280;4481;43.406;24.454;2023-03-16T09:33:44;77730.28;;;-144.09;100.00
8890;BME280;4481;43.406;24.454;2023-03-16T09:36:11;77738.66;;;-144.09;100.00
8890;BME280;4481;43.406;24.454;2023-03-16T09:38:38;77728.19;;;-144.09;100.00
8890;BME280;4481;43.406;24.454;2023-03-16T09:41:07;77738.66;;;-144.09;100.00
8890;BME280;4481;43.406;24.454;2023-03-16T09:43:50;77726.09;;;-144.09;100.00
8890;BME280;4481;43.406;24.454;2023-03-16T09:46:25;77736.56;;;-144.09;100.00
8890;BME280;4481;43.406;24.454;2023-03-16T09:48:53;77734.47;;;-144.09;100.00
8890;BME280;4481;43.406;24.454;2023-03-16T09:51:28;77732.38;;;-144.09;100.00
8890;BME280;4481;43.406;24.454;2023-03-16T09:54:01;77707.28;;;-144.09;100.00
8890;BME280;4481;43.406;24.454;2023-03-16T09:56:30;77715.66;;;-144.09;100.00
8890;BME280;4481;43.406;24.454;2023-03-16T09:58:59;77717.75;;;-144.09;100.00
8890;BME280;4481;43.406;24.454;2023-03-16T10:01:33;77719.84;;;-144.09;100.00
8890;BME280;4481;43.406;24.454;2023-03-16T10:04:10;77703.13;;;-144.09;100.00
8890;BME280;4481;43.406;24.454;2023-03-16T10:06:47;77715.66;;;-144.09;100.00
8890;BME280;4481;43.406;24.454;2023-03-16T10:09:26;77734.47;;;-144.09;100.00
8890;BME280;4481;43.406;24.454;2023-03-16T10:11:58;77747.00;;;-144.09;100.00
8890;BME280;4481;43.406;24.454;2023-03-16T10:14:30;77726.09;;;-144.09;100.00
8890;BME280;4481;43.406;24.454;2023-03-16T10:17:00;77738.66;;;-144.09;100.00
8890;BME280;4481;43.406;24.454;2023-03-16T10:19:33;77742.84;;;-144.09;100.00
8890;BME280;4481;43.406;24.454;2023-03-16T10:22:11;77717.75;;;-144.09;100.00
8890;BME280;4481;43.406;24.454;2023-03-16T10:24:44;77730.28;;;-144.09;100.00
8890;BME280;4481;43.406;24.454;2023-03-16T10:27:19;77696.84;;;-144.09;100.00
8890;BME280;4481;43.406;24.454;2023-03-16T10:29:48;77715.66;;;-144.09;100.00
8890;BME280;4481;43.406;24.454;2023-03-16T10:32:16;77713.56;;;-144.09;100.00
8890;BME280;4481;43.406;24.454;2023-03-16T10:34:51;77711.47;;;-144.09;100.00
8890;BME280;4481;43.406;24.454;2023-03-16T10:37:19;77705.22;;;-144.09;100.00
8890;BME280;4481;43.406;24.454;2023-03-16T10:39:47;77713.56;;;-144.09;100.00
8890;BME280;4481;43.406;24.454;2023-03-16T10:42:15;77694.75;;;-144.09;100.00
8890;BME280;4481;43.406;24.454;2023-03-16T10:44:42;77690.56;;;-144.09;100.00
8890;BME280;4481;43.406;24.454;2023-03-16T10:47:16;77686.41;;;-144.09;100.00
8890;BME280;4481;43.406;24.454;2023-03-16T10:49:44;77671.75;;;-144.09;100.00
8890;BME280;4481;43.406;24.454;2023-03-16T10:52:17;77686.41;;;-144.09;100.00
8890;BME280;4481;43.406;24.454;2023-03-16T10:54:49;77705.22;;;-144.09;100.00
8890;BME280;4481;43.406;24.454;2023-03-16T10:57:23;77696.84;;;-144.09;100.00
8890;BME280;4481;43.406;24.454;2023-03-16T10:59:51;77694.75;;;-144.09;100.00
8890;BME280;4481;43.406;24.454;2023-03-16T11:02:19;77713.56;;;-144.09;100.00
8890;BME280;4481;43.406;24.454;2023-03-16T11:04:48;77709.38;;;-144.09;100.00
8890;BME280;4481;43.406;24.454;2023-03-16T11:07:15;77726.09;;;-144.09;100.00
8890;BME280;4481;43.406;24.454;2023-03-16T11:09:41;77711.47;;;-144.09;100.00
8890;BME280;4481;43.406;24.454;2023-03-16T11:12:18;77696.84;;;-144.09;100.00
8890;BME280;4481;43.406;24.454;2023-03-16T11:14:46;77705.22;;;-144.09;100.00
8890;BME280;4481;43.406;24.454;2023-03-16T11:17:15;77692.66;;;-144.09;100.00
8890;BME280;4481;43.406;24.454;2023-03-16T11:19:49;77675.94;;;-144.09;100.00
8890;BME280;4481;43.406;24.454;2023-03-16T11:22:19;77657.13;;;-144.09;100.00
8890;BME280;4481;43.406;24.454;2023-03-16T11:24:49;77652.94;;;-144.09;100.00
8890;BME280;4481;43.406;24.454;2023-03-16T11:27:22;77667.59;;;-144.09;100.00
8890;BME280;4481;43.406;24.454;2023-03-16T11:30:00;77655.03;;;-144.09;100.00
8890;BME280;4481;43.406;24.454;2023-03-16T11:32:32;77650.84;;;-144.09;100.00
8890;BME280;4481;43.406;24.454;2023-03-16T11:35:00;77625.78;;;-144.09;100.00
8890;BME280;4481;43.406;24.454;2023-03-16T11:37:38;77634.13;;;-144.09;100.00
8890;BME280;4481;43.406;24.454;2023-03-16T11:40:19;77617.41;;;-144.09;100.00
8890;BME280;4481;43.406;24.454;2023-03-16T11:42:59;77617.41;;;-144.09;100.00
8890;BME280;4481;43.406;24.454;2023-03-16T11:45:35;77621.59;;;-144.09;100.00
8890;BME280;4481;43.406;24.454;2023-03-16T11:48:28;77621.59;;;-144.09;100.00
8890;BME280;4481;43.406;24.454;2023-03-16T11:51:01;77615.31;;;-144.09;100.00
8890;BME280;4481;43.406;24.454;2023-03-16T11:53:45;77602.78;;;-144.09;100.00
8890;BME280;4481;43.406;24.454;2023-03-16T11:56:22;77625.78;;;-144.09;100.00
8890;BME280;4481;43.406;24.454;2023-03-16T11:59:02;77611.16;;;-144.09;100.00
8890;BME280;4481;43.406;24.454;2023-03-16T12:01:43;77611.16;;;-144.09;100.00
8890;BME280;4481;43.406;24.454;2023-03-16T12:04:30;77625.78;;;-144.09;100.00
8890;BME280;4481;43.406;24.454;2023-03-16T12:07:10;77617.41;;;-144.09;100.00
8890;BME280;4481;43.406;24.454;2023-03-16T12:09:54;77627.88;;;-144.09;100.00
8890;BME280;4481;43.406;24.454;2023-03-16T12:12:29;77632.03;;;-144.09;100.00
8890;BME280;4481;43.406;24.454;2023-03-16T12:15:18;77636.22;;;-144.09;100.00
8890;BME280;4481;43.406;24.454;2023-03-16T12:17:50;77615.31;;;-144.09;99.82
8890;BME280;4481;43.406;24.454;2023-03-16T12:20:21;77632.03;;;-144.09;100.00
8890;BME280;4481;43.406;24.454;2023-03-16T12:22:52;77650.84;;;-144.09;99.97
8890;BME280;4481;43.406;24.454;2023-03-16T12:25:22;77638.31;;;-144.09;100.00
8890;BME280;4481;43.406;24.454;2023-03-16T12:27:52;77640.41;;;-144.09;100.00
8890;BME280;4481;43.406;24.454;2023-03-16T12:30:26;77652.94;;;-144.09;100.00
8890;BME280;4481;43.406;24.454;2023-03-16T12:33:03;77623.69;;;-144.09;100.00
8890;BME280;4481;43.406;24.454;2023-03-16T12:35:38;77615.31;;;-144.09;99.67
8890;BME280;4481;43.406;24.454;2023-03-16T12:38:18;77598.59;;;-144.09;99.56
8890;BME280;4481;43.406;24.454;2023-03-16T12:40:57;77621.59;;;-144.09;99.45
8890;BME280;4481;43.406;24.454;2023-03-16T12:43:34;77627.88;;;-144.09;99.90
8890;BME280;4481;43.406;24.454;2023-03-16T12:46:07;77606.97;;;-144.09;99.45
8890;BME280;4481;43.406;24.454;2023-03-16T12:48:37;77609.06;;;-144.09;99.73
8890;BME280;4481;43.406;24.454;2023-03-16T12:51:05;77613.25;;;-144.09;99.62